Prospect, New York
Current Conditions -  °F | °C
As of 2:04 PM on Thursday 27 Nov 2014 (Local Time) from KRME Reporting Station
Light Snow Light Snow  
Wind Chill: 24°   Ceiling: 2100
Heat Index: 29°   Visibility: 1mi
Dew Point: 27°   Wind: 5mph
Humidity: 92%   Direction: 280°W
Pressure: 30.02"   Gusts: NA
Location:  43.3°N, 75.15°W
Report Text: KRME 271904Z 28004KT 1SM -SN BR FEW008 BKN021 OVC029 M02/M03 A3002 RMK AO2 P0001 T10171028 RVRNO
Loading
Personal Weather Stations






























Interactive Weather Map New forecast layout! Learn more

10-Day Weather Forecast

Advertisements
Track Severe Weather on mobile